sensor_id;sensor_type;location;lat;lon;timestamp;temperature;humidity
36206;DHT22;22242;48.796;9.930;2023-06-22T00:01:51;20.10;99.90
36206;DHT22;22242;48.796;9.930;2023-06-22T00:04:18;20.20;99.90
36206;DHT22;22242;48.796;9.930;2023-06-22T00:06:45;20.40;99.90
36206;DHT22;22242;48.796;9.930;2023-06-22T00:09:12;20.40;99.90
36206;DHT22;22242;48.796;9.930;2023-06-22T00:11:41;20.30;99.90
36206;DHT22;22242;48.796;9.930;2023-06-22T00:14:08;20.10;99.90
36206;DHT22;22242;48.796;9.930;2023-06-22T00:16:34;20.00;99.90
36206;DHT22;22242;48.796;9.930;2023-06-22T00:19:02;20.20;99.90
36206;DHT22;22242;48.796;9.930;2023-06-22T00:21:29;20.20;99.90
36206;DHT22;22242;48.796;9.930;2023-06-22T00:23:56;20.20;99.90
36206;DHT22;22242;48.796;9.930;2023-06-22T00:26:23;20.10;99.90
36206;DHT22;22242;48.796;9.930;2023-06-22T00:28:52;20.00;99.90
36206;DHT22;22242;48.796;9.930;2023-06-22T00:31:19;19.80;99.90
36206;DHT22;22242;48.796;9.930;2023-06-22T00:33:46;19.70;99.90
36206;DHT22;22242;48.796;9.930;2023-06-22T00:36:13;19.50;99.90
36206;DHT22;22242;48.796;9.930;2023-06-22T00:38:43;19.40;99.90
36206;DHT22;22242;48.796;9.930;2023-06-22T00:41:10;19.30;99.90
36206;DHT22;22242;48.796;9.930;2023-06-22T00:43:37;19.20;99.90
36206;DHT22;22242;48.796;9.930;2023-06-22T00:46:06;19.20;99.90
36206;DHT22;22242;48.796;9.930;2023-06-22T00:48:32;19.10;99.90
36206;DHT22;22242;48.796;9.930;2023-06-22T00:51:00;19.00;99.90
36206;DHT22;22242;48.796;9.930;2023-06-22T00:53:27;19.00;99.90
36206;DHT22;22242;48.796;9.930;2023-06-22T00:55:54;19.00;99.90
36206;DHT22;22242;48.796;9.930;2023-06-22T00:58:25;18.90;99.90
36206;DHT22;22242;48.796;9.930;2023-06-22T01:00:52;18.90;99.90
36206;DHT22;22242;48.796;9.930;2023-06-22T01:03:22;18.90;99.90
36206;DHT22;22242;48.796;9.930;2023-06-22T01:05:50;19.00;99.90
36206;DHT22;22242;48.796;9.930;2023-06-22T01:08:27;19.20;99.90
36206;DHT22;22242;48.796;9.930;2023-06-22T01:11:00;19.40;99.90
36206;DHT22;22242;48.796;9.930;2023-06-22T01:13:36;19.70;99.90
36206;DHT22;22242;48.796;9.930;2023-06-22T01:16:34;19.90;99.90
36206;DHT22;22242;48.796;9.930;2023-06-22T01:19:14;20.00;99.90
36206;DHT22;22242;48.796;9.930;2023-06-22T01:21:49;20.00;99.90
36206;DHT22;22242;48.796;9.930;2023-06-22T01:24:22;20.20;99.90
36206;DHT22;22242;48.796;9.930;2023-06-22T01:26:57;20.10;99.90
36206;DHT22;22242;48.796;9.930;2023-06-22T01:29:29;20.00;99.90
36206;DHT22;22242;48.796;9.930;2023-06-22T01:31:57;19.90;99.90
36206;DHT22;22242;48.796;9.930;2023-06-22T01:34:29;19.90;99.90
36206;DHT22;22242;48.796;9.930;2023-06-22T01:36:58;19.90;99.90
36206;DHT22;22242;48.796;9.930;2023-06-22T01:39:29;19.70;99.90
36206;DHT22;22242;48.796;9.930;2023-06-22T01:41:57;20.00;99.90
36206;DHT22;22242;48.796;9.930;2023-06-22T01:44:25;20.00;99.90
36206;DHT22;22242;48.796;9.930;2023-06-22T01:46:54;19.90;99.90
36206;DHT22;22242;48.796;9.930;2023-06-22T01:49:22;20.10;99.90
36206;DHT22;22242;48.796;9.930;2023-06-22T01:51:49;20.00;99.90
36206;DHT22;22242;48.796;9.930;2023-06-22T01:54:16;19.90;99.90
36206;DHT22;22242;48.796;9.930;2023-06-22T01:56:46;19.90;99.90
36206;DHT22;22242;48.796;9.930;2023-06-22T01:59:18;19.80;99.90
36206;DHT22;22242;48.796;9.930;2023-06-22T02:01:52;19.90;99.90
36206;DHT22;22242;48.796;9.930;2023-06-22T02:04:26;19.80;99.90
36206;DHT22;22242;48.796;9.930;2023-06-22T02:10:20;19.50;99.90
36206;DHT22;22242;48.796;9.930;2023-06-22T02:12:50;19.40;99.90
36206;DHT22;22242;48.796;9.930;2023-06-22T02:15:18;19.40;99.90
36206;DHT22;22242;48.796;9.930;2023-06-22T02:17:47;19.20;99.90
36206;DHT22;22242;48.796;9.930;2023-06-22T02:20:16;19.40;99.90
36206;DHT22;22242;48.796;9.930;2023-06-22T02:22:43;19.50;99.90
36206;DHT22;22242;48.796;9.930;2023-06-22T02:25:11;19.50;99.90
36206;DHT22;22242;48.796;9.930;2023-06-22T02:27:38;19.50;99.90
36206;DHT22;22242;48.796;9.930;2023-06-22T02:30:07;19.40;99.90
36206;DHT22;22242;48.796;9.930;2023-06-22T02:32:35;19.30;99.90
36206;DHT22;22242;48.796;9.930;2023-06-22T02:35:02;19.20;99.90
36206;DHT22;22242;48.796;9.930;2023-06-22T02:37:32;19.10;99.90
36206;DHT22;22242;48.796;9.930;2023-06-22T02:39:59;19.00;99.90
36206;DHT22;22242;48.796;9.930;2023-06-22T02:42:26;18.80;99.90
36206;DHT22;22242;48.796;9.930;2023-06-22T02:44:53;18.80;99.90
36206;DHT22;22242;48.796;9.930;2023-06-22T02:47:20;18.70;99.90
36206;DHT22;22242;48.796;9.930;2023-06-22T02:49:47;18.60;99.90
36206;DHT22;22242;48.796;9.930;2023-06-22T02:52:15;18.70;99.90
36206;DHT22;22242;48.796;9.930;2023-06-22T02:54:43;18.90;99.90
36206;DHT22;22242;48.796;9.930;2023-06-22T02:57:12;18.80;99.90
36206;DHT22;22242;48.796;9.930;2023-06-22T02:59:41;18.70;99.90
36206;DHT22;22242;48.796;9.930;2023-06-22T03:02:10;18.60;99.90
36206;DHT22;22242;48.796;9.930;2023-06-22T03:04:37;18.50;99.90
36206;DHT22;22242;48.796;9.930;2023-06-22T03:07:05;18.50;99.90
36206;DHT22;22242;48.796;9.930;2023-06-22T03:09:32;18.30;99.90
36206;DHT22;22242;48.796;9.930;2023-06-22T03:12:01;18.20;99.90
36206;DHT22;22242;48.796;9.930;2023-06-22T03:14:37;18.20;99.90
36206;DHT22;22242;48.796;9.930;2023-06-22T03:17:05;18.20;99.90
36206;DHT22;22242;48.796;9.930;2023-06-22T03:19:32;18.00;99.90
36206;DHT22;22242;48.796;9.930;2023-06-22T03:21:59;18.10;99.90
36206;DHT22;22242;48.796;9.930;2023-06-22T03:24:26;18.00;99.90
36206;DHT22;22242;48.796;9.930;2023-06-22T03:26:55;18.00;99.90
36206;DHT22;22242;48.796;9.930;2023-06-22T03:29:24;18.00;99.90
36206;DHT22;22242;48.796;9.930;2023-06-22T03:31:51;18.00;99.90
36206;DHT22;22242;48.796;9.930;2023-06-22T03:34:18;18.00;99.90
36206;DHT22;22242;48.796;9.930;2023-06-22T03:36:46;18.00;99.90
36206;DHT22;22242;48.796;9.930;2023-06-22T03:39:13;18.00;99.90
36206;DHT22;22242;48.796;9.930;2023-06-22T03:41:40;17.90;99.90
36206;DHT22;22242;48.796;9.930;2023-06-22T03:44:07;17.90;99.90
36206;DHT22;22242;48.796;9.930;2023-06-22T03:46:39;17.90;99.90
36206;DHT22;22242;48.796;9.930;2023-06-22T03:49:06;17.90;99.90
36206;DHT22;22242;48.796;9.930;2023-06-22T03:51:33;17.90;99.90
36206;DHT22;22242;48.796;9.930;2023-06-22T03:54:01;18.00;99.90
36206;DHT22;22242;48.796;9.930;2023-06-22T03:56:28;18.20;99.90
36206;DHT22;22242;48.796;9.930;2023-06-22T03:58:55;18.30;99.90
36206;DHT22;22242;48.796;9.930;2023-06-22T04:01:22;18.30;99.90
36206;DHT22;22242;48.796;9.930;2023-06-22T04:03:50;19.10;99.90
36206;DHT22;22242;48.796;9.930;2023-06-22T04:06:17;19.30;99.90
36206;DHT22;22242;48.796;9.930;2023-06-22T04:08:45;19.20;99.90
36206;DHT22;22242;48.796;9.930;2023-06-22T04:11:16;18.80;99.90
36206;DHT22;22242;48.796;9.930;2023-06-22T04:13:43;18.60;99.90
36206;DHT22;22242;48.796;9.930;2023-06-22T04:16:10;18.30;99.90
36206;DHT22;22242;48.796;9.930;2023-06-22T04:18:37;18.30;99.90
36206;DHT22;22242;48.796;9.930;2023-06-22T04:21:06;18.30;99.90
36206;DHT22;22242;48.796;9.930;2023-06-22T04:23:33;18.40;99.90
36206;DHT22;22242;48.796;9.930;2023-06-22T04:26:00;18.40;99.90
36206;DHT22;22242;48.796;9.930;2023-06-22T04:28:27;18.40;99.90
36206;DHT22;22242;48.796;9.930;2023-06-22T04:30:54;18.50;99.90
36206;DHT22;22242;48.796;9.930;2023-06-22T04:33:28;18.50;99.90
36206;DHT22;22242;48.796;9.930;2023-06-22T04:35:56;18.70;99.90
36206;DHT22;22242;48.796;9.930;2023-06-22T04:38:25;18.90;99.90
36206;DHT22;22242;48.796;9.930;2023-06-22T04:40:52;18.90;99.90
36206;DHT22;22242;48.796;9.930;2023-06-22T04:43:20;19.00;99.90
36206;DHT22;22242;48.796;9.930;2023-06-22T04:45:47;19.20;99.90
36206;DHT22;22242;48.796;9.930;2023-06-22T04:48:18;19.40;99.90
36206;DHT22;22242;48.796;9.930;2023-06-22T04:50:45;19.80;99.90
36206;DHT22;22242;48.796;9.930;2023-06-22T04:53:12;19.90;99.90
36206;DHT22;22242;48.796;9.930;2023-06-22T04:55:40;20.40;99.90
36206;DHT22;22242;48.796;9.930;2023-06-22T04:58:11;20.70;99.90
36206;DHT22;22242;48.796;9.930;2023-06-22T05:00:38;20.80;99.90
36206;DHT22;22242;48.796;9.930;2023-06-22T05:03:06;21.10;99.90
36206;DHT22;22242;48.796;9.930;2023-06-22T05:05:36;21.60;99.90
36206;DHT22;22242;48.796;9.930;2023-06-22T05:08:04;21.70;99.90
36206;DHT22;22242;48.796;9.930;2023-06-22T05:10:32;21.70;99.90
36206;DHT22;22242;48.796;9.930;2023-06-22T05:13:01;21.70;99.90
36206;DHT22;22242;48.796;9.930;2023-06-22T05:15:28;21.70;99.90
36206;DHT22;22242;48.796;9.930;2023-06-22T05:17:56;21.70;99.90
36206;DHT22;22242;48.796;9.930;2023-06-22T05:20:24;21.70;99.90
36206;DHT22;22242;48.796;9.930;2023-06-22T05:22:51;21.90;99.90
36206;DHT22;22242;48.796;9.930;2023-06-22T05:25:18;22.00;99.90
36206;DHT22;22242;48.796;9.930;2023-06-22T05:27:45;22.20;99.90
36206;DHT22;22242;48.796;9.930;2023-06-22T05:30:14;22.20;99.90
36206;DHT22;22242;48.796;9.930;2023-06-22T05:32:41;22.40;99.90
36206;DHT22;22242;48.796;9.930;2023-06-22T05:35:09;22.40;99.90
36206;DHT22;22242;48.796;9.930;2023-06-22T05:37:37;22.60;99.90
36206;DHT22;22242;48.796;9.930;2023-06-22T05:40:05;22.80;99.90
36206;DHT22;22242;48.796;9.930;2023-06-22T05:42:33;22.70;99.90
36206;DHT22;22242;48.796;9.930;2023-06-22T05:44:59;23.00;99.90
36206;DHT22;22242;48.796;9.930;2023-06-22T05:47:28;23.10;99.90
36206;DHT22;22242;48.796;9.930;2023-06-22T05:49:55;23.10;99.90
36206;DHT22;22242;48.796;9.930;2023-06-22T05:52:21;23.10;99.90
36206;DHT22;22242;48.796;9.930;2023-06-22T05:54:51;23.10;99.90
36206;DHT22;22242;48.796;9.930;2023-06-22T05:57:17;23.20;99.90
36206;DHT22;22242;48.796;9.930;2023-06-22T05:59:44;23.40;99.90
36206;DHT22;22242;48.796;9.930;2023-06-22T06:02:12;23.50;99.90
36206;DHT22;22242;48.796;9.930;2023-06-22T06:04:40;23.40;99.90
36206;DHT22;22242;48.796;9.930;2023-06-22T06:07:07;23.30;99.90
36206;DHT22;22242;48.796;9.930;2023-06-22T06:09:35;23.50;99.90
36206;DHT22;22242;48.796;9.930;2023-06-22T06:12:03;23.80;99.90
36206;DHT22;22242;48.796;9.930;2023-06-22T06:14:30;24.00;99.90
36206;DHT22;22242;48.796;9.930;2023-06-22T06:16:58;24.30;99.90
36206;DHT22;22242;48.796;9.930;2023-06-22T06:19:25;24.50;99.90
36206;DHT22;22242;48.796;9.930;2023-06-22T06:21:53;24.30;99.90
36206;DHT22;22242;48.796;9.930;2023-06-22T06:24:20;24.60;99.90
36206;DHT22;22242;48.796;9.930;2023-06-22T06:26:47;24.80;99.90
36206;DHT22;22242;48.796;9.930;2023-06-22T06:29:15;25.50;99.90
36206;DHT22;22242;48.796;9.930;2023-06-22T06:31:42;25.70;99.90
36206;DHT22;22242;48.796;9.930;2023-06-22T06:34:09;25.90;99.90
36206;DHT22;22242;48.796;9.930;2023-06-22T06:36:36;26.20;99.90
36206;DHT22;22242;48.796;9.930;2023-06-22T06:39:05;26.60;99.90
36206;DHT22;22242;48.796;9.930;2023-06-22T06:41:32;27.10;99.90
36206;DHT22;22242;48.796;9.930;2023-06-22T06:44:00;26.50;99.90
36206;DHT22;22242;48.796;9.930;2023-06-22T06:46:27;27.40;99.90
36206;DHT22;22242;48.796;9.930;2023-06-22T06:48:54;27.80;99.90
36206;DHT22;22242;48.796;9.930;2023-06-22T06:51:21;27.60;99.90
36206;DHT22;22242;48.796;9.930;2023-06-22T06:53:49;27.60;99.90
36206;DHT22;22242;48.796;9.930;2023-06-22T06:56:18;28.00;99.90
36206;DHT22;22242;48.796;9.930;2023-06-22T06:58:45;27.60;99.90
36206;DHT22;22242;48.796;9.930;2023-06-22T07:01:12;27.20;99.90
36206;DHT22;22242;48.796;9.930;2023-06-22T07:03:39;28.00;99.90
36206;DHT22;22242;48.796;9.930;2023-06-22T07:06:07;28.70;99.00
36206;DHT22;22242;48.796;9.930;2023-06-22T07:08:35;28.70;99.00
36206;DHT22;22242;48.796;9.930;2023-06-22T07:11:02;28.80;98.60
36206;DHT22;22242;48.796;9.930;2023-06-22T07:13:30;29.40;97.10
36206;DHT22;22242;48.796;9.930;2023-06-22T07:15:57;29.50;97.90
36206;DHT22;22242;48.796;9.930;2023-06-22T07:18:24;30.50;95.60
36206;DHT22;22242;48.796;9.930;2023-06-22T07:20:52;30.10;95.50
36206;DHT22;22242;48.796;9.930;2023-06-22T07:23:19;29.60;94.00
36206;DHT22;22242;48.796;9.930;2023-06-22T07:25:46;30.30;93.20
36206;DHT22;22242;48.796;9.930;2023-06-22T07:28:13;31.10;92.70
36206;DHT22;22242;48.796;9.930;2023-06-22T07:30:42;31.00;92.50
36206;DHT22;22242;48.796;9.930;2023-06-22T07:33:09;31.00;91.80
36206;DHT22;22242;48.796;9.930;2023-06-22T07:35:36;30.90;91.20
36206;DHT22;22242;48.796;9.930;2023-06-22T07:38:03;31.40;91.00
36206;DHT22;22242;48.796;9.930;2023-06-22T07:40:30;33.20;83.10
36206;DHT22;22242;48.796;9.930;2023-06-22T07:42:57;32.40;86.30
36206;DHT22;22242;48.796;9.930;2023-06-22T07:45:24;32.70;80.80
36206;DHT22;22242;48.796;9.930;2023-06-22T07:47:52;33.70;78.60
36206;DHT22;22242;48.796;9.930;2023-06-22T07:50:19;34.00;77.40
36206;DHT22;22242;48.796;9.930;2023-06-22T07:52:46;33.70;73.60
36206;DHT22;22242;48.796;9.930;2023-06-22T07:55:14;33.60;72.50
36206;DHT22;22242;48.796;9.930;2023-06-22T07:57:41;34.40;72.90
36206;DHT22;22242;48.796;9.930;2023-06-22T08:00:09;34.80;69.60
36206;DHT22;22242;48.796;9.930;2023-06-22T08:02:40;36.20;64.80
36206;DHT22;22242;48.796;9.930;2023-06-22T08:05:09;35.90;62.20
36206;DHT22;22242;48.796;9.930;2023-06-22T08:07:37;34.10;69.40
36206;DHT22;22242;48.796;9.930;2023-06-22T08:10:05;34.30;67.70
36206;DHT22;22242;48.796;9.930;2023-06-22T08:12:33;34.10;67.50
36206;DHT22;22242;48.796;9.930;2023-06-22T08:15:00;34.40;67.90
36206;DHT22;22242;48.796;9.930;2023-06-22T08:17:27;35.00;66.80
36206;DHT22;22242;48.796;9.930;2023-06-22T08:19:54;35.40;64.50
36206;DHT22;22242;48.796;9.930;2023-06-22T08:22:22;35.00;64.50
36206;DHT22;22242;48.796;9.930;2023-06-22T08:24:50;34.60;66.80
36206;DHT22;22242;48.796;9.930;2023-06-22T08:27:17;35.00;67.00
36206;DHT22;22242;48.796;9.930;2023-06-22T08:29:46;36.70;63.10
36206;DHT22;22242;48.796;9.930;2023-06-22T08:32:13;35.70;62.40
36206;DHT22;22242;48.796;9.930;2023-06-22T08:34:40;35.80;63.90
36206;DHT22;22242;48.796;9.930;2023-06-22T08:37:08;35.00;64.10
36206;DHT22;22242;48.796;9.930;2023-06-22T08:39:37;33.30;67.00
36206;DHT22;22242;48.796;9.930;2023-06-22T08:42:05;34.80;66.30
36206;DHT22;22242;48.796;9.930;2023-06-22T08:44:33;35.20;66.50
36206;DHT22;22242;48.796;9.930;2023-06-22T08:47:00;35.90;67.30
36206;DHT22;22242;48.796;9.930;2023-06-22T08:49:27;36.40;63.20
36206;DHT22;22242;48.796;9.930;2023-06-22T08:51:54;37.10;61.10
36206;DHT22;22242;48.796;9.930;2023-06-22T08:54:22;36.90;60.70
36206;DHT22;22242;48.796;9.930;2023-06-22T08:56:51;37.40;62.30
36206;DHT22;22242;48.796;9.930;2023-06-22T08:59:18;36.70;62.10
36206;DHT22;22242;48.796;9.930;2023-06-22T09:01:45;37.30;60.50
36206;DHT22;22242;48.796;9.930;2023-06-22T09:04:14;37.00;59.80
36206;DHT22;22242;48.796;9.930;2023-06-22T09:06:42;36.80;59.40
36206;DHT22;22242;48.796;9.930;2023-06-22T09:09:12;36.50;63.50
36206;DHT22;22242;48.796;9.930;2023-06-22T09:11:40;36.80;63.20
36206;DHT22;22242;48.796;9.930;2023-06-22T09:14:09;35.80;64.40
36206;DHT22;22242;48.796;9.930;2023-06-22T09:16:36;36.70;62.00
36206;DHT22;22242;48.796;9.930;2023-06-22T09:19:03;36.60;63.30
36206;DHT22;22242;48.796;9.930;2023-06-22T09:21:30;36.90;62.00
36206;DHT22;22242;48.796;9.930;2023-06-22T09:23:57;37.40;64.50
36206;DHT22;22242;48.796;9.930;2023-06-22T09:26:25;36.70;62.80
36206;DHT22;22242;48.796;9.930;2023-06-22T09:28:52;36.40;65.10
36206;DHT22;22242;48.796;9.930;2023-06-22T09:31:20;36.10;61.50
36206;DHT22;22242;48.796;9.930;2023-06-22T09:33:52;35.50;63.00
36206;DHT22;22242;48.796;9.930;2023-06-22T09:36:20;35.10;65.10
36206;DHT22;22242;48.796;9.930;2023-06-22T09:38:47;35.40;64.60
36206;DHT22;22242;48.796;9.930;2023-06-22T09:41:14;35.60;64.30
36206;DHT22;22242;48.796;9.930;2023-06-22T09:43:41;36.90;62.70
36206;DHT22;22242;48.796;9.930;2023-06-22T09:46:08;35.80;62.60
36206;DHT22;22242;48.796;9.930;2023-06-22T09:48:37;35.80;62.60
36206;DHT22;22242;48.796;9.930;2023-06-22T09:51:04;35.80;64.70
36206;DHT22;22242;48.796;9.930;2023-06-22T09:53:31;35.80;64.90
36206;DHT22;22242;48.796;9.930;2023-06-22T09:56:00;35.40;66.80
36206;DHT22;22242;48.796;9.930;2023-06-22T09:58:27;35.40;64.80
36206;DHT22;22242;48.796;9.930;2023-06-22T10:00:54;36.80;62.90
36206;DHT22;22242;48.796;9.930;2023-06-22T10:03:21;36.50;63.00
36206;DHT22;22242;48.796;9.930;2023-06-22T10:05:50;36.50;61.30
36206;DHT22;22242;48.796;9.930;2023-06-22T10:08:17;36.50;63.80
36206;DHT22;22242;48.796;9.930;2023-06-22T10:10:44;36.80;60.50
36206;DHT22;22242;48.796;9.930;2023-06-22T10:13:11;36.40;61.20
36206;DHT22;22242;48.796;9.930;2023-06-22T10:15:39;35.80;61.70
36206;DHT22;22242;48.796;9.930;2023-06-22T10:18:06;36.30;62.20
36206;DHT22;22242;48.796;9.930;2023-06-22T10:20:33;36.30;61.80
36206;DHT22;22242;48.796;9.930;2023-06-22T10:23:01;38.00;58.50
36206;DHT22;22242;48.796;9.930;2023-06-22T10:25:28;37.70;60.00
36206;DHT22;22242;48.796;9.930;2023-06-22T10:27:55;38.40;59.80
36206;DHT22;22242;48.796;9.930;2023-06-22T10:30:23;38.10;58.50
36206;DHT22;22242;48.796;9.930;2023-06-22T10:32:50;38.00;58.10
36206;DHT22;22242;48.796;9.930;2023-06-22T10:35:17;37.80;59.10
36206;DHT22;22242;48.796;9.930;2023-06-22T10:37:45;38.90;57.20
36206;DHT22;22242;48.796;9.930;2023-06-22T10:40:14;38.80;57.80
36206;DHT22;22242;48.796;9.930;2023-06-22T10:42:42;39.10;56.70
36206;DHT22;22242;48.796;9.930;2023-06-22T10:45:09;38.70;57.50
36206;DHT22;22242;48.796;9.930;2023-06-22T10:47:37;37.60;58.90
36206;DHT22;22242;48.796;9.930;2023-06-22T10:50:05;36.40;60.50
36206;DHT22;22242;48.796;9.930;2023-06-22T10:52:32;35.80;59.70
36206;DHT22;22242;48.796;9.930;2023-06-22T10:54:59;35.30;67.30
36206;DHT22;22242;48.796;9.930;2023-06-22T10:57:28;34.40;68.90
36206;DHT22;22242;48.796;9.930;2023-06-22T10:59:55;35.40;66.60
36206;DHT22;22242;48.796;9.930;2023-06-22T11:02:23;36.10;63.20
36206;DHT22;22242;48.796;9.930;2023-06-22T11:04:50;36.30;61.60
36206;DHT22;22242;48.796;9.930;2023-06-22T11:07:17;36.70;63.70
36206;DHT22;22242;48.796;9.930;2023-06-22T11:09:44;36.50;65.00
36206;DHT22;22242;48.796;9.930;2023-06-22T11:12:11;35.70;65.80
36206;DHT22;22242;48.796;9.930;2023-06-22T11:14:40;36.10;64.40
36206;DHT22;22242;48.796;9.930;2023-06-22T11:17:07;36.20;64.50
36206;DHT22;22242;48.796;9.930;2023-06-22T11:19:34;35.60;64.80
36206;DHT22;22242;48.796;9.930;2023-06-22T11:22:02;35.20;65.30
36206;DHT22;22242;48.796;9.930;2023-06-22T11:24:29;34.80;67.30
36206;DHT22;22242;48.796;9.930;2023-06-22T11:26:56;34.90;68.20
36206;DHT22;22242;48.796;9.930;2023-06-22T11:29:23;34.70;67.10
36206;DHT22;22242;48.796;9.930;2023-06-22T11:31:51;34.80;69.90
36206;DHT22;22242;48.796;9.930;2023-06-22T11:34:18;33.90;67.60
36206;DHT22;22242;48.796;9.930;2023-06-22T11:36:45;34.00;66.60
36206;DHT22;22242;48.796;9.930;2023-06-22T11:39:13;33.40;70.10
36206;DHT22;22242;48.796;9.930;2023-06-22T11:41:41;33.90;68.10
36206;DHT22;22242;48.796;9.930;2023-06-22T11:44:08;33.20;70.90
36206;DHT22;22242;48.796;9.930;2023-06-22T11:46:35;33.30;71.00
36206;DHT22;22242;48.796;9.930;2023-06-22T11:49:03;34.20;67.80
36206;DHT22;22242;48.796;9.930;2023-06-22T11:51:31;34.50;68.00
36206;DHT22;22242;48.796;9.930;2023-06-22T11:53:57;33.90;70.10
36206;DHT22;22242;48.796;9.930;2023-06-22T11:56:24;34.30;70.30
36206;DHT22;22242;48.796;9.930;2023-06-22T11:58:53;33.90;74.40
36206;DHT22;22242;48.796;9.930;2023-06-22T12:01:20;33.50;73.40
36206;DHT22;22242;48.796;9.930;2023-06-22T12:03:47;33.20;75.30
36206;DHT22;22242;48.796;9.930;2023-06-22T12:06:16;33.30;75.40
36206;DHT22;22242;48.796;9.930;2023-06-22T12:08:43;33.50;76.00
36206;DHT22;22242;48.796;9.930;2023-06-22T12:11:10;33.30;76.10
36206;DHT22;22242;48.796;9.930;2023-06-22T12:13:37;32.70;75.50
36206;DHT22;22242;48.796;9.930;2023-06-22T12:16:04;32.60;77.50
36206;DHT22;22242;48.796;9.930;2023-06-22T12:18:32;32.60;75.40
36206;DHT22;22242;48.796;9.930;2023-06-22T12:20:59;32.70;75.80
36206;DHT22;22242;48.796;9.930;2023-06-22T12:23:27;33.30;71.10
36206;DHT22;22242;48.796;9.930;2023-06-22T12:25:54;32.50;74.20
36206;DHT22;22242;48.796;9.930;2023-06-22T12:28:21;32.30;75.30
36206;DHT22;22242;48.796;9.930;2023-06-22T12:30:49;32.30;76.10
36206;DHT22;22242;48.796;9.930;2023-06-22T12:33:16;32.10;81.40
36206;DHT22;22242;48.796;9.930;2023-06-22T12:35:43;32.10;82.70
36206;DHT22;22242;48.796;9.930;2023-06-22T12:38:11;32.00;84.00
36206;DHT22;22242;48.796;9.930;2023-06-22T12:40:39;32.20;78.00
36206;DHT22;22242;48.796;9.930;2023-06-22T12:43:06;32.60;76.30
36206;DHT22;22242;48.796;9.930;2023-06-22T12:45:33;32.90;82.00
36206;DHT22;22242;48.796;9.930;2023-06-22T12:48:00;32.80;80.20
36206;DHT22;22242;48.796;9.930;2023-06-22T12:50:27;32.60;79.50
36206;DHT22;22242;48.796;9.930;2023-06-22T12:52:54;32.80;80.10
36206;DHT22;22242;48.796;9.930;2023-06-22T12:55:22;32.90;82.10
36206;DHT22;22242;48.796;9.930;2023-06-22T12:57:50;33.00;79.30
36206;DHT22;22242;48.796;9.930;2023-06-22T13:00:17;33.10;79.30
36206;DHT22;22242;48.796;9.930;2023-06-22T13:02:45;32.90;79.60
36206;DHT22;22242;48.796;9.930;2023-06-22T13:05:12;32.90;80.70
36206;DHT22;22242;48.796;9.930;2023-06-22T13:07:39;32.30;76.70
36206;DHT22;22242;48.796;9.930;2023-06-22T13:10:08;32.70;82.30
36206;DHT22;22242;48.796;9.930;2023-06-22T13:12:35;33.00;81.40
36206;DHT22;22242;48.796;9.930;2023-06-22T13:15:04;33.60;78.60
36206;DHT22;22242;48.796;9.930;2023-06-22T13:17:31;33.30;77.80
36206;DHT22;22242;48.796;9.930;2023-06-22T13:19:58;33.00;79.10
36206;DHT22;22242;48.796;9.930;2023-06-22T13:22:30;32.10;80.20
36206;DHT22;22242;48.796;9.930;2023-06-22T13:24:58;32.30;80.00
36206;DHT22;22242;48.796;9.930;2023-06-22T13:27:25;32.10;81.40
36206;DHT22;22242;48.796;9.930;2023-06-22T13:29:52;31.90;86.70
36206;DHT22;22242;48.796;9.930;2023-06-22T13:32:20;31.70;85.00
36206;DHT22;22242;48.796;9.930;2023-06-22T13:34:48;31.70;86.30
36206;DHT22;22242;48.796;9.930;2023-06-22T13:37:15;31.80;86.30
36206;DHT22;22242;48.796;9.930;2023-06-22T13:39:42;31.80;85.90
36206;DHT22;22242;48.796;9.930;2023-06-22T13:42:09;31.70;83.50
36206;DHT22;22242;48.796;9.930;2023-06-22T13:44:36;31.50;87.90
36206;DHT22;22242;48.796;9.930;2023-06-22T13:47:04;31.80;88.30
36206;DHT22;22242;48.796;9.930;2023-06-22T13:49:32;32.10;82.70
36206;DHT22;22242;48.796;9.930;2023-06-22T13:51:59;32.00;86.90
36206;DHT22;22242;48.796;9.930;2023-06-22T13:54:26;32.10;85.80
36206;DHT22;22242;48.796;9.930;2023-06-22T13:56:53;32.10;85.40
36206;DHT22;22242;48.796;9.930;2023-06-22T13:59:21;32.30;84.30
36206;DHT22;22242;48.796;9.930;2023-06-22T14:01:48;31.90;83.50
36206;DHT22;22242;48.796;9.930;2023-06-22T14:04:15;31.60;83.60
36206;DHT22;22242;48.796;9.930;2023-06-22T14:06:44;31.30;82.10
36206;DHT22;22242;48.796;9.930;2023-06-22T14:09:11;31.60;80.40
36206;DHT22;22242;48.796;9.930;2023-06-22T14:11:38;31.30;82.10
36206;DHT22;22242;48.796;9.930;2023-06-22T14:14:05;31.10;84.00
36206;DHT22;22242;48.796;9.930;2023-06-22T14:16:32;31.50;87.00
36206;DHT22;22242;48.796;9.930;2023-06-22T14:18:59;31.70;81.10
36206;DHT22;22242;48.796;9.930;2023-06-22T14:21:26;31.90;80.80
36206;DHT22;22242;48.796;9.930;2023-06-22T14:23:54;31.70;78.70
36206;DHT22;22242;48.796;9.930;2023-06-22T14:26:21;31.50;78.90
36206;DHT22;22242;48.796;9.930;2023-06-22T14:28:49;31.50;80.90
36206;DHT22;22242;48.796;9.930;2023-06-22T14:31:17;31.30;84.10
36206;DHT22;22242;48.796;9.930;2023-06-22T14:33:46;31.10;83.50
36206;DHT22;22242;48.796;9.930;2023-06-22T14:36:17;31.30;85.30
36206;DHT22;22242;48.796;9.930;2023-06-22T14:38:44;31.40;80.60
36206;DHT22;22242;48.796;9.930;2023-06-22T14:41:13;31.40;81.50
36206;DHT22;22242;48.796;9.930;2023-06-22T14:43:46;31.80;78.00
36206;DHT22;22242;48.796;9.930;2023-06-22T14:46:14;32.10;77.00
36206;DHT22;22242;48.796;9.930;2023-06-22T14:48:41;32.10;73.80
36206;DHT22;22242;48.796;9.930;2023-06-22T14:51:08;32.10;73.60
36206;DHT22;22242;48.796;9.930;2023-06-22T14:53:36;31.80;69.70
36206;DHT22;22242;48.796;9.930;2023-06-22T14:56:03;31.40;73.50
36206;DHT22;22242;48.796;9.930;2023-06-22T14:58:32;31.10;76.40
36206;DHT22;22242;48.796;9.930;2023-06-22T15:01:00;30.70;77.20
36206;DHT22;22242;48.796;9.930;2023-06-22T15:03:27;30.50;76.50
36206;DHT22;22242;48.796;9.930;2023-06-22T15:05:56;30.40;78.00
36206;DHT22;22242;48.796;9.930;2023-06-22T15:08:24;30.40;87.60
36206;DHT22;22242;48.796;9.930;2023-06-22T15:10:52;30.70;76.10
36206;DHT22;22242;48.796;9.930;2023-06-22T15:13:19;30.90;75.60
36206;DHT22;22242;48.796;9.930;2023-06-22T15:15:47;31.00;73.30
36206;DHT22;22242;48.796;9.930;2023-06-22T15:18:15;31.10;73.50
36206;DHT22;22242;48.796;9.930;2023-06-22T15:20:42;31.20;77.10
36206;DHT22;22242;48.796;9.930;2023-06-22T15:23:11;31.30;73.60
36206;DHT22;22242;48.796;9.930;2023-06-22T15:25:38;31.10;72.80
36206;DHT22;22242;48.796;9.930;2023-06-22T15:28:05;30.70;72.90
36206;DHT22;22242;48.796;9.930;2023-06-22T15:30:32;30.60;73.60
36206;DHT22;22242;48.796;9.930;2023-06-22T15:33:01;30.50;71.90
36206;DHT22;22242;48.796;9.930;2023-06-22T15:35:28;30.50;72.90
36206;DHT22;22242;48.796;9.930;2023-06-22T15:37:55;30.40;75.70